Time;durP1;ratioP1;P1;durP2;ratioP2;P2;SDS_P1;SDS_P2;PMS_P1;PMS_P2;Temp;Humidity;BMP_temperature;BMP_pressure;BME280_temperature;BME280_humidity;BME280_pressure;Samples;Min_cycle;Max_cycle;Signal;HPM_P1;HPM_P2
2021/06/14 00:02:13;;;;;;;10.67;4.57;;;13.90;99.90;;;;;;5089537;28;20913;-69
2021/06/14 00:05:00;;;;;;;7.87;3.87;;;13.90;99.90;;;;;;5088588;28;20528;-69
2021/06/14 00:07:46;;;;;;;6.40;3.80;;;14.00;99.90;;;;;;5081222;28;20592;-69
2021/06/14 00:10:33;;;;;;;5.90;3.27;;;13.70;99.90;;;;;;5086670;28;20874;-69
2021/06/14 00:13:19;;;;;;;5.93;4.00;;;13.70;99.90;;;;;;5085507;28;20576;-70
2021/06/14 00:16:05;;;;;;;11.37;4.67;;;13.80;99.90;;;;;;5086941;28;21050;-70
2021/06/14 00:18:51;;;;;;;6.60;4.00;;;13.70;99.90;;;;;;5085122;28;20472;-69
2021/06/14 00:21:39;;;;;;;8.70;4.27;;;13.90;99.90;;;;;;5088082;28;20459;-69
2021/06/14 00:24:25;;;;;;;5.20;3.33;;;14.00;99.90;;;;;;5087182;28;20512;-70
2021/06/14 00:27:12;;;;;;;6.70;4.13;;;13.60;99.90;;;;;;5087079;28;20563;-69
2021/06/14 00:29:57;;;;;;;5.87;3.83;;;13.40;99.90;;;;;;5080436;28;20550;-69
2021/06/14 00:32:43;;;;;;;11.20;3.97;;;13.50;99.90;;;;;;5090392;28;20445;-70
2021/06/14 00:35:28;;;;;;;6.63;3.90;;;13.40;99.90;;;;;;5087144;28;20457;-69
2021/06/14 00:38:17;;;;;;;8.00;4.00;;;13.30;99.90;;;;;;5086107;28;20465;-69
2021/06/14 00:41:04;;;;;;;8.07;4.47;;;13.50;99.90;;;;;;5084958;28;20576;-69
2021/06/14 00:43:50;;;;;;;9.30;4.10;;;13.70;99.90;;;;;;5081812;28;20416;-69
2021/06/14 00:46:35;;;;;;;9.73;3.87;;;13.60;99.90;;;;;;5087796;28;20508;-69
2021/06/14 00:49:21;;;;;;;7.30;3.80;;;13.70;99.90;;;;;;5080908;28;20469;-69
2021/06/14 00:52:08;;;;;;;7.80;4.10;;;13.50;99.90;;;;;;5084849;28;20457;-69
2021/06/14 00:54:55;;;;;;;5.23;3.50;;;13.10;99.90;;;;;;5084626;28;20945;-69
2021/06/14 00:57:40;;;;;;;8.80;4.10;;;13.10;99.90;;;;;;5089542;28;20603;-69
2021/06/14 01:00:26;;;;;;;5.93;4.07;;;13.30;99.90;;;;;;5084969;28;20567;-69
2021/06/14 01:03:13;;;;;;;5.77;4.10;;;13.30;99.90;;;;;;5083530;28;20462;-69
2021/06/14 01:06:01;;;;;;;6.83;4.30;;;13.20;99.90;;;;;;5082515;28;20448;-69
2021/06/14 01:08:49;;;;;;;8.93;4.80;;;13.10;99.90;;;;;;5081928;28;20463;-69
2021/06/14 01:11:43;;;;;;;5.90;3.30;;;13.10;99.90;;;;;;5090284;28;20475;-69
2021/06/14 01:14:36;;;;;;;6.73;3.50;;;13.20;99.90;;;;;;5088549;28;20588;-69
2021/06/14 01:17:31;;;;;;;9.27;3.70;;;13.30;99.90;;;;;;5086442;28;20475;-69
2021/06/14 01:20:37;;;;;;;7.77;4.23;;;13.10;99.90;;;;;;5085616;28;20477;-70
2021/06/14 01:23:42;;;;;;;4.90;3.60;;;13.00;99.90;;;;;;5127275;22;20526;-70
2021/06/14 01:26:32;;;;;;;8.90;4.13;;;13.00;99.90;;;;;;5090035;28;20492;-70
2021/06/14 01:29:20;;;;;;;7.23;4.30;;;12.90;99.90;;;;;;5084074;28;20424;-71
2021/06/14 01:32:09;;;;;;;6.00;4.27;;;12.70;99.90;;;;;;5091290;28;20392;-70
2021/06/14 01:34:55;;;;;;;6.43;4.10;;;12.70;99.90;;;;;;5089268;28;20804;-70
2021/06/14 01:37:45;;;;;;;7.30;3.37;;;12.60;99.90;;;;;;5090975;28;20416;-72
2021/06/14 01:40:32;;;;;;;8.47;4.53;;;12.70;99.90;;;;;;5084633;28;20417;-71
2021/06/14 01:43:20;;;;;;;10.83;4.87;;;12.70;99.90;;;;;;5091262;28;21005;-73
2021/06/14 01:46:11;;;;;;;8.57;4.23;;;12.60;99.90;;;;;;5093308;28;20474;-73
2021/06/14 01:48:57;;;;;;;6.63;4.90;;;12.60;99.90;;;;;;5088796;28;20434;-70
2021/06/14 01:51:44;;;;;;;7.37;3.60;;;12.70;99.90;;;;;;5090365;28;20790;-73
2021/06/14 01:54:29;;;;;;;7.30;4.80;;;12.70;99.90;;;;;;5092580;28;20985;-72
2021/06/14 01:57:16;;;;;;;9.77;4.97;;;12.50;99.90;;;;;;5091096;28;20504;-73
2021/06/14 02:00:02;;;;;;;6.50;4.53;;;12.40;99.90;;;;;;5093357;28;20516;-70
2021/06/14 02:02:50;;;;;;;6.83;3.70;;;12.60;99.90;;;;;;5089899;28;20936;-72
2021/06/14 02:05:37;;;;;;;9.80;3.87;;;12.40;99.90;;;;;;5089083;28;20555;-72
2021/06/14 02:08:23;;;;;;;7.53;4.20;;;12.60;99.90;;;;;;5089256;28;20514;-72
2021/06/14 02:11:10;;;;;;;6.00;3.50;;;12.60;99.90;;;;;;5093355;28;20441;-73
2021/06/14 02:13:56;;;;;;;7.30;4.40;;;12.70;99.90;;;;;;5090335;28;20612;-73
2021/06/14 02:16:45;;;;;;;7.27;4.17;;;12.50;99.90;;;;;;5084570;28;20446;-72
2021/06/14 02:19:32;;;;;;;6.00;4.43;;;12.60;99.90;;;;;;5092203;28;20425;-72
2021/06/14 02:22:19;;;;;;;8.53;4.20;;;12.60;99.90;;;;;;5081563;28;20563;-70
2021/06/14 02:25:07;;;;;;;5.73;3.80;;;12.60;99.90;;;;;;5085771;28;21061;-73
2021/06/14 02:27:53;;;;;;;6.33;3.83;;;12.60;99.90;;;;;;5091081;28;20438;-70
2021/06/14 02:30:39;;;;;;;7.93;4.47;;;12.50;99.90;;;;;;5090441;28;20497;-71
2021/06/14 02:33:25;;;;;;;11.97;4.63;;;12.50;99.90;;;;;;5082881;28;21101;-70
2021/06/14 02:36:12;;;;;;;6.60;4.73;;;12.40;99.90;;;;;;5092643;28;20418;-73
2021/06/14 02:39:01;;;;;;;6.43;4.30;;;12.40;99.90;;;;;;5086971;28;20400;-72
2021/06/14 02:41:48;;;;;;;11.30;4.03;;;12.50;99.90;;;;;;5088035;28;20800;-73
2021/06/14 02:44:34;;;;;;;5.10;3.60;;;12.60;99.90;;;;;;5087181;28;20427;-73
2021/06/14 02:47:20;;;;;;;9.60;4.40;;;12.50;99.90;;;;;;5091155;28;20452;-73
2021/06/14 02:50:11;;;;;;;4.60;3.70;;;12.40;99.90;;;;;;5088400;28;20787;-72
2021/06/14 02:53:01;;;;;;;6.77;4.33;;;12.40;99.90;;;;;;5086930;28;20465;-70
2021/06/14 02:55:53;;;;;;;7.40;4.50;;;12.30;99.90;;;;;;5084530;28;20544;-70
2021/06/14 02:58:40;;;;;;;9.30;3.97;;;12.20;99.90;;;;;;5084916;28;20808;-72
2021/06/14 03:01:28;;;;;;;6.07;4.20;;;12.20;99.90;;;;;;5090405;28;20397;-72
2021/06/14 03:04:14;;;;;;;8.10;4.23;;;12.20;99.90;;;;;;5081941;28;20473;-70
2021/06/14 03:07:01;;;;;;;9.87;4.63;;;12.20;99.90;;;;;;5087515;28;20473;-70
2021/06/14 03:09:49;;;;;;;7.03;3.90;;;12.30;99.90;;;;;;5086569;28;20413;-70
2021/06/14 03:12:34;;;;;;;8.43;5.10;;;12.40;99.90;;;;;;5089843;28;20541;-72
2021/06/14 03:15:20;;;;;;;6.00;4.20;;;12.40;99.90;;;;;;5089399;28;20833;-72
2021/06/14 03:18:07;;;;;;;6.00;4.30;;;12.20;99.90;;;;;;5088790;28;20568;-73
2021/06/14 03:20:55;;;;;;;8.53;4.20;;;12.20;99.90;;;;;;5086532;28;20459;-73
2021/06/14 03:23:41;;;;;;;14.43;5.20;;;12.30;99.90;;;;;;5087067;28;21064;-73
2021/06/14 03:26:32;;;;;;;9.03;4.10;;;12.20;99.90;;;;;;5088747;28;20551;-71
2021/06/14 03:29:21;;;;;;;6.13;4.30;;;12.20;99.90;;;;;;5090524;28;20926;-72
2021/06/14 03:32:08;;;;;;;6.20;4.50;;;12.20;99.90;;;;;;5086777;28;20497;-73
2021/06/14 03:34:55;;;;;;;5.30;3.50;;;12.10;99.90;;;;;;5086309;28;20405;-72
2021/06/14 03:37:43;;;;;;;6.37;4.67;;;12.10;99.90;;;;;;5085768;28;20442;-73
2021/06/14 03:40:28;;;;;;;9.60;4.20;;;12.10;99.90;;;;;;5086879;28;20440;-73
2021/06/14 03:43:16;;;;;;;9.43;4.60;;;12.20;99.90;;;;;;5088597;28;21245;-73
2021/06/14 03:46:01;;;;;;;6.63;4.10;;;12.20;99.90;;;;;;5086675;28;20473;-72
2021/06/14 03:48:47;;;;;;;9.50;4.80;;;12.20;99.90;;;;;;5087522;28;20438;-73
2021/06/14 03:51:33;;;;;;;7.30;4.43;;;12.10;99.90;;;;;;5090305;28;20454;-71
2021/06/14 03:54:19;;;;;;;9.60;4.20;;;12.10;99.90;;;;;;5089043;28;20519;-73
2021/06/14 03:57:06;;;;;;;5.90;4.13;;;12.30;99.90;;;;;;5090346;28;20412;-72
2021/06/14 03:59:53;;;;;;;8.00;4.10;;;12.40;99.90;;;;;;5090030;28;20408;-71
2021/06/14 04:02:39;;;;;;;7.17;4.80;;;12.30;99.90;;;;;;5085611;28;20407;-71
2021/06/14 04:05:25;;;;;;;6.10;3.93;;;12.30;99.90;;;;;;5085937;28;20420;-71
2021/06/14 04:08:12;;;;;;;7.53;3.87;;;12.30;99.90;;;;;;5085029;28;20518;-71
2021/06/14 04:10:57;;;;;;;16.97;4.30;;;12.40;99.90;;;;;;5089800;28;20452;-72
2021/06/14 04:13:43;;;;;;;13.37;4.10;;;12.50;99.90;;;;;;5085647;28;20534;-71
2021/06/14 04:16:30;;;;;;;7.53;4.80;;;12.40;99.90;;;;;;5088743;28;20417;-71
2021/06/14 04:19:16;;;;;;;8.40;3.70;;;12.50;99.90;;;;;;5083605;28;20425;-71
2021/06/14 04:22:01;;;;;;;11.60;5.40;;;12.60;99.90;;;;;;5086974;28;20588;-71
2021/06/14 04:24:47;;;;;;;12.33;4.67;;;12.60;99.90;;;;;;5080381;28;20412;-72
2021/06/14 04:27:33;;;;;;;6.03;3.80;;;12.50;99.90;;;;;;5086501;28;20551;-71
2021/06/14 04:30:19;;;;;;;8.17;3.80;;;12.60;99.90;;;;;;5087322;28;20421;-71
2021/06/14 04:33:07;;;;;;;13.47;4.27;;;12.80;99.90;;;;;;5083689;28;20957;-72
2021/06/14 04:35:53;;;;;;;7.90;4.60;;;12.90;99.90;;;;;;5087019;28;20422;-71
2021/06/14 04:38:38;;;;;;;7.50;4.07;;;13.00;99.90;;;;;;5084297;28;20777;-72
2021/06/14 04:41:24;;;;;;;6.13;4.57;;;13.10;99.90;;;;;;5086366;28;20453;-72
2021/06/14 04:44:09;;;;;;;16.33;4.97;;;13.20;99.90;;;;;;5085162;28;20475;-71
2021/06/14 04:46:55;;;;;;;14.73;5.07;;;13.20;99.90;;;;;;5086401;28;20511;-72
2021/06/14 04:49:42;;;;;;;19.43;5.30;;;13.40;99.90;;;;;;5085386;28;20924;-72
2021/06/14 04:52:28;;;;;;;67.17;6.40;;;13.30;99.90;;;;;;5082074;28;20473;-71
2021/06/14 04:55:14;;;;;;;8.00;4.13;;;13.30;99.90;;;;;;5084467;28;20460;-72
2021/06/14 04:58:00;;;;;;;15.47;4.37;;;13.60;99.90;;;;;;5088444;28;20429;-72
2021/06/14 05:00:46;;;;;;;19.23;5.00;;;13.60;99.90;;;;;;5093571;28;20516;-72
2021/06/14 05:03:31;;;;;;;8.73;5.30;;;13.80;99.90;;;;;;5091858;28;20448;-72
2021/06/14 05:06:18;;;;;;;23.47;4.73;;;13.90;99.90;;;;;;5082218;28;20503;-72
2021/06/14 05:09:04;;;;;;;25.80;4.77;;;14.00;99.90;;;;;;5094868;28;20495;-71
2021/06/14 05:11:50;;;;;;;23.60;5.50;;;14.10;99.90;;;;;;5083591;28;20814;-71
2021/06/14 05:14:36;;;;;;;7.20;4.63;;;14.30;99.90;;;;;;5086125;28;20422;-72
2021/06/14 05:17:21;;;;;;;10.30;4.40;;;14.40;99.90;;;;;;5085161;28;20586;-72
2021/06/14 05:20:08;;;;;;;18.90;4.83;;;14.70;99.90;;;;;;5094960;28;20399;-71
2021/06/14 05:22:55;;;;;;;6.00;3.80;;;14.80;99.90;;;;;;5085906;28;20469;-71
2021/06/14 05:25:40;;;;;;;10.73;4.40;;;15.00;99.90;;;;;;5086739;28;20459;-72
2021/06/14 05:28:26;;;;;;;6.83;4.53;;;15.00;99.90;;;;;;5093700;28;20579;-71
2021/06/14 05:31:12;;;;;;;7.70;3.90;;;15.20;99.90;;;;;;5086566;28;20429;-72
2021/06/14 05:33:58;;;;;;;7.77;4.60;;;15.30;99.90;;;;;;5081506;28;20466;-72
2021/06/14 05:36:44;;;;;;;8.23;4.90;;;15.50;99.90;;;;;;5088514;28;20572;-72
2021/06/14 05:39:30;;;;;;;7.43;4.07;;;15.60;99.90;;;;;;5092013;28;20961;-72
2021/06/14 05:42:16;;;;;;;9.47;4.67;;;15.80;99.90;;;;;;5088319;28;20469;-72
2021/06/14 05:45:04;;;;;;;8.10;4.27;;;15.90;99.90;;;;;;5085843;28;20494;-72
2021/06/14 05:47:50;;;;;;;7.20;4.13;;;16.00;99.90;;;;;;5090146;28;20469;-72
2021/06/14 05:50:36;;;;;;;14.10;4.07;;;16.20;99.90;;;;;;5087866;28;20441;-72
2021/06/14 05:53:23;;;;;;;7.93;4.33;;;16.40;99.90;;;;;;5091337;28;20447;-71
2021/06/14 05:56:10;;;;;;;5.90;3.90;;;16.60;99.90;;;;;;5089727;28;20421;-72
2021/06/14 05:58:56;;;;;;;15.60;5.13;;;16.70;99.90;;;;;;5092363;28;20790;-71
2021/06/14 06:01:42;;;;;;;5.77;3.60;;;16.90;99.90;;;;;;5084305;28;20446;-71
2021/06/14 06:04:27;;;;;;;7.37;4.17;;;17.00;99.90;;;;;;5091104;28;20425;-72
2021/06/14 06:07:13;;;;;;;7.77;3.33;;;17.20;99.90;;;;;;5090519;28;20997;-71
2021/06/14 06:09:59;;;;;;;5.87;3.13;;;17.40;99.90;;;;;;5092729;28;20472;-71
2021/06/14 06:12:45;;;;;;;8.50;3.60;;;17.60;99.90;;;;;;5084836;28;20513;-72
2021/06/14 06:15:31;;;;;;;6.53;3.50;;;17.80;99.90;;;;;;5086142;28;20529;-72
2021/06/14 06:18:17;;;;;;;7.73;3.27;;;17.90;99.90;;;;;;5087363;28;20557;-73
2021/06/14 06:21:03;;;;;;;7.63;4.17;;;18.00;99.90;;;;;;5088456;28;20933;-72
2021/06/14 06:23:49;;;;;;;7.93;4.00;;;18.10;99.70;;;;;;5089841;28;20928;-72
2021/06/14 06:26:35;;;;;;;8.27;4.00;;;18.20;99.90;;;;;;5085952;28;20449;-72
2021/06/14 06:29:22;;;;;;;8.47;3.70;;;18.30;99.90;;;;;;5085873;28;20803;-71
2021/06/14 06:32:08;;;;;;;6.10;3.70;;;18.40;98.00;;;;;;5086677;28;20970;-72
2021/06/14 06:34:54;;;;;;;7.27;3.73;;;18.60;95.40;;;;;;5086261;28;20949;-72
2021/06/14 06:37:39;;;;;;;7.07;3.50;;;18.70;91.80;;;;;;5088171;28;20442;-72
2021/06/14 06:40:25;;;;;;;10.00;3.57;;;18.70;89.50;;;;;;5086808;28;20449;-71
2021/06/14 06:43:11;;;;;;;5.83;3.33;;;18.80;85.10;;;;;;5088156;28;20444;-72
2021/06/14 06:45:58;;;;;;;6.37;3.20;;;18.90;83.00;;;;;;5087119;28;20961;-72
2021/06/14 06:48:44;;;;;;;7.60;3.83;;;19.00;83.40;;;;;;5086284;28;20457;-72
2021/06/14 06:51:29;;;;;;;6.90;2.70;;;19.10;86.00;;;;;;5087007;28;20453;-71
2021/06/14 06:54:15;;;;;;;7.87;3.40;;;19.20;84.60;;;;;;5088046;28;20446;-72
2021/06/14 06:57:00;;;;;;;5.57;3.33;;;19.30;81.30;;;;;;5079562;28;20924;-73
2021/06/14 06:59:46;;;;;;;6.10;3.20;;;19.30;81.80;;;;;;5090188;28;20491;-72
2021/06/14 07:02:33;;;;;;;7.37;3.10;;;19.40;80.60;;;;;;5086877;28;20473;-72
2021/06/14 07:05:18;;;;;;;6.33;3.30;;;19.60;77.30;;;;;;5087140;28;20449;-72
2021/06/14 07:08:05;;;;;;;8.43;3.80;;;19.80;77.60;;;;;;5085776;28;20916;-72
2021/06/14 07:10:51;;;;;;;8.17;3.60;;;19.90;75.90;;;;;;5085283;28;20503;-72
2021/06/14 07:13:36;;;;;;;14.03;3.27;;;20.10;74.70;;;;;;5089507;28;20551;-71
2021/06/14 07:16:22;;;;;;;8.77;4.00;;;20.20;77.00;;;;;;5089456;28;20453;-72
2021/06/14 07:19:09;;;;;;;6.63;3.30;;;20.30;73.30;;;;;;5086794;28;20572;-71
2021/06/14 07:21:55;;;;;;;8.73;3.23;;;20.30;73.40;;;;;;5089512;28;20533;-71
2021/06/14 07:24:41;;;;;;;4.93;2.70;;;20.50;71.00;;;;;;5092046;28;21156;-72
2021/06/14 07:27:26;;;;;;;4.73;3.10;;;20.50;71.50;;;;;;5089547;28;20469;-72
2021/06/14 07:30:14;;;;;;;5.63;3.03;;;20.50;70.00;;;;;;5082072;28;20449;-71
2021/06/14 07:33:00;;;;;;;9.60;3.77;;;20.60;65.40;;;;;;5088105;28;20437;-72
2021/06/14 07:35:47;;;;;;;6.30;3.70;;;20.60;64.40;;;;;;5089994;28;20599;-72
2021/06/14 07:38:33;;;;;;;10.20;2.93;;;20.60;65.40;;;;;;5087218;28;20524;-72
2021/06/14 07:41:19;;;;;;;4.30;2.67;;;20.70;64.80;;;;;;5088201;28;20441;-72
2021/06/14 07:44:06;;;;;;;5.20;2.83;;;20.80;61.10;;;;;;5084832;28;20485;-72
2021/06/14 07:46:53;;;;;;;5.20;2.67;;;20.80;63.00;;;;;;5090320;28;20427;-72
2021/06/14 07:49:39;;;;;;;7.17;3.37;;;20.90;60.10;;;;;;5089482;28;20418;-72
2021/06/14 07:52:26;;;;;;;7.63;3.07;;;21.00;61.90;;;;;;5089015;28;20473;-72
2021/06/14 07:55:13;;;;;;;11.40;3.40;;;21.10;64.00;;;;;;5087589;28;21276;-72
2021/06/14 07:57:59;;;;;;;4.40;2.50;;;21.10;60.20;;;;;;5085861;28;20489;-72
2021/06/14 08:00:45;;;;;;;7.60;3.73;;;21.20;58.70;;;;;;5084261;28;20569;-72
2021/06/14 08:03:31;;;;;;;5.90;2.90;;;21.30;56.90;;;;;;5082798;28;20476;-71
2021/06/14 08:06:16;;;;;;;12.53;3.40;;;21.50;61.20;;;;;;5088882;28;20465;-72
2021/06/14 08:09:07;;;;;;;6.60;2.87;;;21.50;60.70;;;;;;5084815;28;20466;-71
2021/06/14 08:11:54;;;;;;;6.30;2.87;;;21.60;57.20;;;;;;5084311;28;20453;-72
2021/06/14 08:14:40;;;;;;;5.00;2.87;;;21.60;58.90;;;;;;5087002;28;20804;-72
2021/06/14 08:17:28;;;;;;;5.17;2.93;;;21.60;57.90;;;;;;5088484;28;20418;-72
2021/06/14 08:20:21;;;;;;;9.93;2.50;;;21.70;58.50;;;;;;5084374;28;20997;-71
2021/06/14 08:26:12;;;;;;;4.47;2.60;;;21.90;54.30;;;;;;5089045;28;20573;-72
2021/06/14 08:29:00;;;;;;;6.33;2.90;;;22.00;59.10;;;;;;5081050;28;20540;-72
2021/06/14 08:31:46;;;;;;;6.43;2.73;;;22.00;57.30;;;;;;5086145;28;20420;-72
2021/06/14 08:34:31;;;;;;;3.40;2.40;;;22.00;52.70;;;;;;5080296;28;20458;-72
2021/06/14 08:37:17;;;;;;;6.93;2.87;;;22.10;53.20;;;;;;5088613;28;20499;-72
2021/06/14 08:40:06;;;;;;;5.30;3.43;;;22.10;52.60;;;;;;5088762;28;20441;-72
2021/06/14 08:42:53;;;;;;;13.70;4.00;;;22.20;55.60;;;;;;5090466;28;20531;-71
2021/06/14 08:45:41;;;;;;;6.50;2.87;;;22.20;55.50;;;;;;5086548;28;20565;-72
2021/06/14 08:48:27;;;;;;;4.57;2.73;;;22.30;54.40;;;;;;5087615;28;20546;-72
2021/06/14 08:51:14;;;;;;;7.80;3.10;;;22.40;54.00;;;;;;5088225;28;20797;-73
2021/06/14 08:53:59;;;;;;;6.17;2.63;;;22.20;50.50;;;;;;5085478;28;20442;-72
2021/06/14 08:56:45;;;;;;;5.60;2.40;;;22.30;54.00;;;;;;5084275;28;20418;-72
2021/06/14 08:59:32;;;;;;;3.57;2.23;;;22.20;47.60;;;;;;5084423;28;20448;-72
2021/06/14 09:02:18;;;;;;;7.23;3.30;;;22.30;53.10;;;;;;5089582;28;20450;-71
2021/06/14 09:05:04;;;;;;;4.57;2.80;;;22.40;55.90;;;;;;5084093;28;20531;-72
2021/06/14 09:07:51;;;;;;;8.10;3.47;;;22.50;49.20;;;;;;5088392;28;20465;-72
2021/06/14 09:10:38;;;;;;;6.77;3.10;;;22.40;48.10;;;;;;5089025;28;20452;-72
2021/06/14 09:13:26;;;;;;;5.53;2.77;;;22.50;53.90;;;;;;5084366;28;20508;-71
2021/06/14 09:16:15;;;;;;;5.13;3.00;;;22.60;51.00;;;;;;5089689;28;21240;-71
2021/06/14 09:19:01;;;;;;;6.90;3.10;;;22.70;50.30;;;;;;5082814;28;20445;-72
2021/06/14 09:21:49;;;;;;;6.20;2.60;;;22.80;52.80;;;;;;5086976;28;20917;-72
2021/06/14 09:24:34;;;;;;;10.90;3.37;;;22.90;52.70;;;;;;5088074;28;20852;-71
2021/06/14 09:27:31;;;;;;;8.10;3.27;;;23.10;53.20;;;;;;5085569;28;20441;-71
2021/06/14 09:30:20;;;;;;;6.90;3.47;;;23.20;52.50;;;;;;5082419;28;20492;-72
2021/06/14 09:33:09;;;;;;;6.83;3.10;;;23.30;48.80;;;;;;5084781;28;20535;-71
2021/06/14 09:36:06;;;;;;;5.53;2.90;;;23.30;49.00;;;;;;5086803;28;20535;-71
2021/06/14 09:38:52;;;;;;;4.87;2.93;;;23.30;47.60;;;;;;5084303;28;20456;-72
2021/06/14 09:41:40;;;;;;;6.40;2.70;;;23.40;48.90;;;;;;5088558;28;20954;-71
2021/06/14 09:44:30;;;;;;;7.00;2.90;;;23.50;52.10;;;;;;5083278;28;20422;-71
2021/06/14 09:47:17;;;;;;;5.43;2.50;;;23.60;51.80;;;;;;5093295;28;20978;-71
2021/06/14 09:50:08;;;;;;;6.87;2.60;;;23.70;52.10;;;;;;5088726;28;20445;-71
2021/06/14 09:53:06;;;;;;;7.97;2.77;;;23.80;49.20;;;;;;5092149;28;20572;-71
2021/06/14 09:55:52;;;;;;;6.63;2.70;;;23.90;48.20;;;;;;5091208;28;20440;-72
2021/06/14 09:58:42;;;;;;;6.53;2.37;;;23.90;44.60;;;;;;5088112;28;20453;-71
2021/06/14 10:01:29;;;;;;;7.73;3.20;;;24.00;47.10;;;;;;5090318;28;20434;-72
2021/06/14 10:04:14;;;;;;;7.33;2.67;;;24.00;45.60;;;;;;5088167;28;20465;-72
2021/06/14 10:07:12;;;;;;;4.57;2.37;;;24.00;43.90;;;;;;5082634;28;20426;-72
2021/06/14 10:09:57;;;;;;;10.33;4.47;;;24.10;45.00;;;;;;5092156;28;20417;-72
2021/06/14 10:12:49;;;;;;;9.30;2.83;;;24.00;43.80;;;;;;5087424;28;21139;-71
2021/06/14 10:15:37;;;;;;;7.53;3.00;;;24.10;42.70;;;;;;5091564;28;20520;-71
2021/06/14 10:18:31;;;;;;;4.53;2.00;;;24.20;47.70;;;;;;5089514;28;20518;-72
2021/06/14 10:21:25;;;;;;;7.63;2.63;;;24.30;47.50;;;;;;5086143;28;20461;-71
2021/06/14 10:24:14;;;;;;;8.70;2.90;;;24.30;46.50;;;;;;5087445;28;20449;-72
2021/06/14 10:27:00;;;;;;;4.57;2.50;;;24.40;45.60;;;;;;5083231;28;20445;-72
2021/06/14 10:29:46;;;;;;;6.37;3.00;;;24.60;47.50;;;;;;5081743;28;20654;-71
2021/06/14 10:32:33;;;;;;;10.53;2.17;;;24.50;43.80;;;;;;5089631;28;20504;-72
2021/06/14 10:35:20;;;;;;;6.70;3.03;;;24.50;46.50;;;;;;5088056;28;20425;-72
2021/06/14 10:38:06;;;;;;;4.87;2.63;;;24.70;45.90;;;;;;5088339;28;20433;-71
2021/06/14 10:40:55;;;;;;;8.00;2.80;;;24.80;44.00;;;;;;5091216;28;20442;-72
2021/06/14 10:43:41;;;;;;;4.60;2.47;;;24.90;47.00;;;;;;5080891;28;20596;-72
2021/06/14 10:46:27;;;;;;;5.00;2.37;;;25.10;45.00;;;;;;5084752;28;20450;-72
2021/06/14 10:49:15;;;;;;;12.80;3.70;;;25.20;45.20;;;;;;5091200;28;20519;-71
2021/06/14 10:52:02;;;;;;;6.23;2.50;;;25.30;43.60;;;;;;5081139;28;20508;-71
2021/06/14 10:54:48;;;;;;;5.97;2.80;;;25.30;41.90;;;;;;5090052;28;20449;-71
2021/06/14 10:57:35;;;;;;;11.33;3.23;;;25.20;41.10;;;;;;5089385;28;20442;-71
2021/06/14 11:00:26;;;;;;;20.47;5.73;;;25.30;43.10;;;;;;5089302;28;20958;-71
2021/06/14 11:03:15;;;;;;;6.77;2.70;;;25.40;43.00;;;;;;5089981;28;20484;-71
2021/06/14 11:06:00;;;;;;;6.30;2.63;;;25.50;39.20;;;;;;5087564;28;21057;-71
2021/06/14 11:09:01;;;;;;;5.67;2.23;;;25.40;40.40;;;;;;5083325;28;20477;-71
2021/06/14 11:11:52;;;;;;;5.67;2.63;;;25.40;39.70;;;;;;5084265;28;20451;-71
2021/06/14 11:14:42;;;;;;;7.63;3.50;;;25.40;39.10;;;;;;5089948;28;20468;-71
2021/06/14 11:17:33;;;;;;;5.87;2.30;;;25.40;39.10;;;;;;5090287;28;20457;-71
2021/06/14 11:20:18;;;;;;;4.40;2.30;;;25.20;38.60;;;;;;5084655;28;20974;-71
2021/06/14 11:23:05;;;;;;;5.27;2.63;;;25.30;39.00;;;;;;5087476;28;20776;-71
2021/06/14 11:25:51;;;;;;;4.30;2.23;;;25.40;39.00;;;;;;5088469;28;20808;-71
2021/06/14 11:28:38;;;;;;;7.00;2.50;;;25.50;39.00;;;;;;5087192;28;22675;-71
2021/06/14 11:31:31;;;;;;;4.83;2.40;;;25.60;38.90;;;;;;5083970;28;20508;-71
2021/06/14 11:34:21;;;;;;;7.13;2.60;;;25.90;41.30;;;;;;5086545;28;20445;-71
2021/06/14 11:37:07;;;;;;;4.40;2.40;;;26.10;38.40;;;;;;5088708;28;20551;-71
2021/06/14 11:40:00;;;;;;;6.93;2.83;;;26.20;37.40;;;;;;5087592;28;20433;-71
2021/06/14 11:42:49;;;;;;;6.67;2.77;;;26.30;41.30;;;;;;5089360;28;20473;-71
2021/06/14 11:45:38;;;;;;;5.60;2.80;;;26.40;38.30;;;;;;5087231;28;20435;-71
2021/06/14 11:48:27;;;;;;;4.30;2.23;;;26.50;40.80;;;;;;5089134;28;20490;-71
2021/06/14 11:51:18;;;;;;;9.13;2.87;;;26.50;35.50;;;;;;5086855;28;20441;-71
2021/06/14 11:54:05;;;;;;;3.60;2.23;;;26.60;38.10;;;;;;5085941;28;20514;-71
2021/06/14 11:56:58;;;;;;;6.80;2.23;;;26.70;39.90;;;;;;5083811;28;20603;-71
2021/06/14 11:59:44;;;;;;;4.03;1.97;;;26.80;36.60;;;;;;5079103;28;20815;-71
2021/06/14 12:02:31;;;;;;;7.70;2.47;;;27.00;38.10;;;;;;5089449;28;20602;-71
2021/06/14 12:05:28;;;;;;;8.97;2.30;;;27.10;37.90;;;;;;5079973;28;20446;-71
2021/06/14 12:08:19;;;;;;;3.60;2.10;;;27.00;35.70;;;;;;5078810;28;20581;-71
2021/06/14 12:11:09;;;;;;;4.27;2.47;;;26.80;34.10;;;;;;5079915;28;20420;-71
2021/06/14 12:13:55;;;;;;;4.07;2.63;;;26.60;35.30;;;;;;5079850;28;20462;-71
2021/06/14 12:16:40;;;;;;;7.30;2.40;;;26.40;35.60;;;;;;5076932;28;20424;-71
2021/06/14 12:19:28;;;;;;;4.40;2.60;;;26.50;37.70;;;;;;5090249;28;20461;-71
2021/06/14 12:22:20;;;;;;;3.77;2.30;;;26.70;38.30;;;;;;5081703;28;20968;-71
2021/06/14 12:25:08;;;;;;;5.70;2.40;;;26.90;35.70;;;;;;5082767;28;20423;-71
2021/06/14 12:28:02;;;;;;;6.83;2.73;;;27.10;37.90;;;;;;5080533;28;20423;-71
2021/06/14 12:30:51;;;;;;;4.63;1.93;;;27.30;36.20;;;;;;5088678;28;20500;-71
2021/06/14 12:33:38;;;;;;;3.93;1.87;;;27.50;38.30;;;;;;5078075;28;20531;-71
2021/06/14 12:36:25;;;;;;;7.57;2.23;;;27.60;35.90;;;;;;5089175;28;20484;-71
2021/06/14 12:39:11;;;;;;;5.83;2.30;;;27.80;37.60;;;;;;5089273;28;20592;-70
2021/06/14 12:41:58;;;;;;;4.50;2.30;;;27.90;37.00;;;;;;5082612;28;20503;-70
2021/06/14 12:44:57;;;;;;;9.07;2.30;;;27.90;36.80;;;;;;5087201;28;20449;-70
2021/06/14 12:47:44;;;;;;;9.43;2.60;;;28.10;38.20;;;;;;5089331;28;20450;-71
2021/06/14 12:50:32;;;;;;;9.70;3.10;;;28.30;36.80;;;;;;5083373;28;21001;-71
2021/06/14 12:53:19;;;;;;;4.83;2.80;;;28.40;35.00;;;;;;5084986;28;20496;-70
2021/06/14 12:56:06;;;;;;;5.10;2.30;;;28.50;33.40;;;;;;5085449;28;20445;-71
2021/06/14 12:58:52;;;;;;;5.67;2.00;;;28.50;35.70;;;;;;5088048;28;20410;-71
2021/06/14 13:01:38;;;;;;;4.60;1.97;;;28.50;32.50;;;;;;5090585;28;20413;-71
2021/06/14 13:04:26;;;;;;;4.47;2.20;;;28.30;33.30;;;;;;5083243;28;20519;-70
2021/06/14 13:07:14;;;;;;;8.83;2.93;;;28.30;36.60;;;;;;5081449;28;20450;-71
2021/06/14 13:10:01;;;;;;;3.80;2.00;;;28.50;34.10;;;;;;5082691;28;20905;-72
2021/06/14 13:12:49;;;;;;;6.17;2.00;;;28.50;35.20;;;;;;5078870;28;20446;-71
2021/06/14 13:15:34;;;;;;;3.73;2.13;;;28.60;33.50;;;;;;5070106;28;21213;-72
2021/06/14 13:18:21;;;;;;;6.30;2.80;;;28.60;34.80;;;;;;5084398;28;20587;-72
2021/06/14 13:21:08;;;;;;;3.93;2.17;;;28.70;33.60;;;;;;5082304;28;20529;-72
2021/06/14 13:26:24;;;;;;;5.40;2.40;;;28.90;33.00;;;;;;5075873;28;20994;-68
2021/06/14 13:29:16;;;;;;;8.10;2.83;;;28.90;33.80;;;;;;5066501;28;20473;-68
2021/06/14 13:32:09;;;;;;;6.90;2.20;;;29.10;35.50;;;;;;5069261;28;20423;-68
2021/06/14 13:34:56;;;;;;;4.83;2.77;;;29.20;34.70;;;;;;5069734;28;20470;-68
2021/06/14 13:37:44;;;;;;;5.57;2.33;;;29.40;33.70;;;;;;5073511;28;20417;-68
2021/06/14 13:40:31;;;;;;;3.80;2.10;;;29.60;32.80;;;;;;5073048;28;20995;-68
2021/06/14 13:43:25;;;;;;;5.90;2.47;;;29.60;32.70;;;;;;5073129;28;20476;-67
2021/06/14 13:46:11;;;;;;;5.17;2.50;;;29.60;31.50;;;;;;5073776;28;20509;-68
2021/06/14 13:48:57;;;;;;;4.40;2.37;;;29.60;32.60;;;;;;5071274;28;20474;-68
2021/06/14 13:51:44;;;;;;;3.80;2.17;;;29.40;29.80;;;;;;5054267;28;20415;-68
2021/06/14 13:54:30;;;;;;;5.40;2.20;;;28.90;31.00;;;;;;5067584;28;21006;-67
2021/06/14 13:57:17;;;;;;;6.37;2.20;;;29.10;33.90;;;;;;5074097;28;20418;-68
2021/06/14 14:00:10;;;;;;;4.40;2.40;;;29.30;30.30;;;;;;5071890;28;20471;-68
2021/06/14 14:02:57;;;;;;;5.00;2.60;;;29.40;34.10;;;;;;5072887;28;21058;-68
2021/06/14 14:05:44;;;;;;;5.53;2.30;;;29.60;34.30;;;;;;5075042;28;21004;-68
2021/06/14 14:08:30;;;;;;;4.73;2.13;;;29.80;34.50;;;;;;5073612;28;20454;-68
2021/06/14 14:11:15;;;;;;;5.00;2.33;;;29.90;34.30;;;;;;5070245;28;20427;-71
2021/06/14 14:14:03;;;;;;;7.50;2.30;;;29.90;32.30;;;;;;5071207;28;20450;-71
2021/06/14 14:16:51;;;;;;;10.33;2.60;;;29.90;31.30;;;;;;5071981;28;20537;-69
2021/06/14 14:19:47;;;;;;;5.30;2.50;;;30.00;32.90;;;;;;5071297;28;20439;-68
2021/06/14 14:22:32;;;;;;;19.67;3.40;;;30.00;30.00;;;;;;5071557;28;20557;-68
2021/06/14 14:25:20;;;;;;;12.03;2.80;;;30.10;30.40;;;;;;5070356;28;20576;-69
2021/06/14 14:28:07;;;;;;;6.07;2.53;;;29.80;29.30;;;;;;5073441;28;20439;-69
2021/06/14 14:30:52;;;;;;;4.17;2.63;;;29.20;30.00;;;;;;5073040;28;20951;-69
2021/06/14 14:33:38;;;;;;;3.70;2.10;;;28.90;31.90;;;;;;5072655;28;20872;-69
2021/06/14 14:36:25;;;;;;;6.90;2.40;;;28.80;33.40;;;;;;5071430;28;20418;-69